Country
Station

 

Weather  for  Yan An  -  China    China

  
29 °C (84 °F)
    
 
 

Current METAR for Yan An is :

ZLYA 190700Z 11003MPS 080V170 9999 FEW030 29/12 Q1017 NOSIG

 

This is a report for Yan An - China.
 
The report was made 50 hours and 33 minutes ago, at 07:00 UTC .
The wind was blowing at a speed of 3 meters per second (6.7 miles per hour) from east/southeast (110°), varying between east (080°) and south (170°).
 
The temperature was 29 °C (84 °F), with a dew-point at 12 °C (54 °F).
The temperature felt like 28 °C (83 °F).
 
The atmospheric pressure was 1017 hPa (30.03 inHg).
The relative humidity was 35.0%.
 
There were a few clouds at a height of 914 meters (3000 feet).
 
The overall visibility was greater than 10 kilometers (6.2 miles).
 

 
 
 
 

Country :   A   B   C   D   E   F   G   H   I   J   K   L   M   N   O   P   Q   R   S   T   U   V   W   Y   Z

 

Site Info  |  Disclaimer  |  Credits  |  Privacy
Contact us  |  Add to favorites
© 2013-2019 METARs - All rights reserved